createdAt,value
2022-08-31T00:02:40.723Z,2.58
2022-08-31T00:05:08.342Z,2.10
2022-08-31T00:07:35.283Z,2.00
2022-08-31T00:10:11.663Z,2.20
2022-08-31T00:12:38.521Z,2.13
2022-08-31T00:15:06.125Z,1.92
2022-08-31T00:17:32.936Z,2.13
2022-08-31T00:19:59.893Z,1.88
2022-08-31T00:22:26.893Z,2.50
2022-08-31T00:24:53.802Z,2.08
2022-08-31T00:27:21.933Z,2.08
2022-08-31T00:29:49.023Z,2.20
2022-08-31T00:32:15.964Z,2.20
2022-08-31T00:37:15.068Z,2.33
2022-08-31T00:39:41.968Z,2.03
2022-08-31T00:42:08.994Z,2.20
2022-08-31T00:44:35.869Z,1.92
2022-08-31T00:47:02.947Z,1.95
2022-08-31T00:49:34.472Z,1.90
2022-08-31T00:52:04.303Z,2.07
2022-08-31T00:54:33.664Z,1.90
2022-08-31T00:57:00.490Z,1.90
2022-08-31T00:59:27.374Z,1.95
2022-08-31T01:01:54.542Z,2.10
2022-08-31T01:04:21.703Z,2.20
2022-08-31T01:06:49.143Z,2.10
2022-08-31T01:09:16.359Z,2.03
2022-08-31T01:11:44.022Z,2.10
2022-08-31T01:14:11.835Z,2.20
2022-08-31T01:16:44.114Z,1.98
2022-08-31T01:19:36.814Z,2.10
2022-08-31T01:22:19.462Z,2.58
2022-08-31T01:24:46.809Z,2.30
2022-08-31T01:27:15.299Z,2.00
2022-08-31T01:29:42.291Z,2.30
2022-08-31T01:32:09.327Z,2.13
2022-08-31T01:34:36.152Z,2.20
2022-08-31T01:37:03.045Z,2.20
2022-08-31T01:39:29.925Z,2.08
2022-08-31T01:41:57.506Z,2.00
2022-08-31T01:44:25.203Z,2.00
2022-08-31T01:46:52.578Z,2.20
2022-08-31T01:49:20.280Z,2.00
2022-08-31T01:51:47.674Z,1.90
2022-08-31T01:54:15.785Z,2.10
2022-08-31T01:56:45.085Z,2.00
2022-08-31T01:59:18.162Z,2.20
2022-08-31T02:02:13.694Z,2.20
2022-08-31T02:04:41.528Z,2.47
2022-08-31T02:07:08.330Z,1.90
2022-08-31T02:09:35.221Z,2.42
2022-08-31T02:12:02.139Z,1.98
2022-08-31T02:14:29.010Z,1.90
2022-08-31T02:16:56.434Z,1.92
2022-08-31T02:19:23.282Z,1.95
2022-08-31T02:21:50.202Z,2.08
2022-08-31T02:24:17.441Z,2.40
2022-08-31T02:26:44.242Z,2.15
2022-08-31T02:29:11.106Z,2.00
2022-08-31T02:31:38.938Z,2.30
2022-08-31T02:34:05.909Z,2.05
2022-08-31T02:36:35.920Z,2.10
2022-08-31T02:39:05.880Z,2.13
2022-08-31T02:41:33.454Z,2.38
2022-08-31T02:44:00.323Z,2.00
2022-08-31T02:46:27.700Z,1.83
2022-08-31T02:49:10.475Z,2.20
2022-08-31T02:51:40.813Z,2.10
2022-08-31T02:54:07.875Z,2.10
2022-08-31T02:56:34.751Z,1.85
2022-08-31T02:59:01.660Z,2.33
2022-08-31T03:01:29.227Z,2.30
2022-08-31T03:03:56.370Z,2.20
2022-08-31T03:06:23.703Z,2.00
2022-08-31T03:08:50.796Z,1.98
2022-08-31T03:11:17.837Z,2.00
2022-08-31T03:13:44.915Z,2.17
2022-08-31T03:16:13.071Z,2.05
2022-08-31T03:18:39.998Z,2.60
2022-08-31T03:21:07.688Z,2.75
2022-08-31T03:23:35.657Z,2.03
2022-08-31T03:26:05.689Z,2.35
2022-08-31T03:28:38.663Z,2.22
2022-08-31T03:31:24.645Z,1.95
2022-08-31T03:33:52.870Z,2.10
2022-08-31T03:36:19.695Z,2.13
2022-08-31T03:38:47.224Z,2.30
2022-08-31T03:41:14.169Z,2.55
2022-08-31T03:43:42.006Z,2.20
2022-08-31T03:46:12.219Z,2.10
2022-08-31T03:48:42.946Z,2.45
2022-08-31T03:51:09.925Z,2.00
2022-08-31T03:53:37.882Z,2.20
2022-08-31T03:56:08.425Z,2.03
2022-08-31T03:58:40.412Z,2.20
2022-08-31T04:01:10.570Z,2.15
2022-08-31T04:03:57.890Z,2.20
2022-08-31T04:06:44.748Z,2.22
2022-08-31T04:09:30.213Z,2.10
2022-08-31T04:12:16.979Z,1.95
2022-08-31T04:15:08.212Z,2.22
2022-08-31T04:17:57.011Z,2.45
2022-08-31T04:20:43.516Z,2.28
2022-08-31T04:23:11.246Z,2.08
2022-08-31T04:25:45.918Z,1.85
2022-08-31T04:28:12.917Z,2.42
2022-08-31T04:30:40.903Z,2.10
2022-08-31T04:33:07.909Z,2.10
2022-08-31T04:35:34.887Z,2.10
2022-08-31T04:38:01.866Z,2.15
2022-08-31T04:40:28.932Z,2.00
2022-08-31T04:42:57.578Z,2.20
2022-08-31T04:45:24.791Z,2.30
2022-08-31T04:47:52.621Z,2.10
2022-08-31T04:50:19.534Z,2.20
2022-08-31T04:53:07.478Z,3.10
2022-08-31T04:55:34.547Z,1.77
2022-08-31T04:58:01.476Z,2.13
2022-08-31T05:00:28.485Z,1.85
2022-08-31T05:03:14.048Z,1.98
2022-08-31T05:05:42.041Z,2.25
2022-08-31T05:08:09.161Z,2.30
2022-08-31T05:10:36.001Z,1.90
2022-08-31T05:13:03.408Z,1.98
2022-08-31T05:15:32.055Z,2.33
2022-08-31T05:17:59.945Z,1.85
2022-08-31T05:20:27.647Z,1.95
2022-08-31T05:22:55.585Z,2.33
2022-08-31T05:25:22.440Z,2.40
2022-08-31T05:27:49.530Z,2.15
2022-08-31T05:30:16.627Z,2.10
2022-08-31T05:33:05.266Z,2.30
2022-08-31T05:35:32.640Z,2.03
2022-08-31T05:37:59.688Z,2.05
2022-08-31T05:40:27.746Z,2.20
2022-08-31T05:42:59.368Z,2.30
2022-08-31T05:45:26.862Z,1.92
2022-08-31T05:47:53.904Z,2.58
2022-08-31T05:50:20.910Z,2.00
2022-08-31T05:52:47.957Z,1.92
2022-08-31T05:55:15.337Z,2.17
2022-08-31T05:57:43.062Z,2.30
2022-08-31T06:00:10.814Z,2.03
2022-08-31T06:02:43.909Z,2.20
2022-08-31T06:05:14.590Z,2.15
2022-08-31T06:07:43.560Z,2.55
2022-08-31T06:10:14.988Z,1.90
2022-08-31T06:12:44.131Z,1.85
2022-08-31T06:15:11.566Z,2.30
2022-08-31T06:17:38.475Z,2.20
2022-08-31T06:20:08.164Z,2.30
2022-08-31T06:22:36.210Z,2.08
2022-08-31T06:25:06.117Z,2.35
2022-08-31T06:27:34.070Z,2.10
2022-08-31T06:30:02.095Z,2.10
2022-08-31T06:32:32.626Z,1.90
2022-08-31T06:35:08.241Z,1.90
2022-08-31T06:37:58.552Z,2.15
2022-08-31T06:40:43.909Z,2.05
2022-08-31T06:43:43.466Z,2.15
2022-08-31T06:46:32.238Z,2.35
2022-08-31T06:49:10.284Z,2.25
2022-08-31T06:51:38.411Z,1.80
2022-08-31T06:54:21.754Z,2.17
2022-08-31T06:57:12.567Z,2.03
2022-08-31T06:59:57.732Z,2.10
2022-08-31T07:02:40.808Z,2.00
2022-08-31T07:05:11.543Z,2.10
2022-08-31T07:07:42.101Z,2.10
2022-08-31T07:10:10.541Z,2.25
2022-08-31T07:12:37.532Z,2.20
2022-08-31T07:15:05.127Z,2.25
2022-08-31T07:17:33.051Z,2.45
2022-08-31T07:20:01.517Z,1.98
2022-08-31T07:22:30.018Z,2.20
2022-08-31T07:25:12.525Z,1.90
2022-08-31T07:27:40.004Z,2.05
2022-08-31T07:30:09.510Z,1.80
2022-08-31T07:32:38.286Z,2.58
2022-08-31T07:35:06.574Z,2.22
2022-08-31T07:37:52.090Z,2.03
2022-08-31T07:40:42.935Z,2.30
2022-08-31T07:43:12.392Z,2.25
2022-08-31T07:45:41.022Z,2.20
2022-08-31T07:48:08.764Z,2.28
2022-08-31T07:50:46.326Z,2.00
2022-08-31T07:53:24.845Z,2.20
2022-08-31T07:56:00.580Z,3.28
2022-08-31T07:58:40.229Z,2.20
2022-08-31T08:01:08.198Z,2.33
2022-08-31T08:03:35.487Z,2.40
2022-08-31T08:06:23.088Z,2.28
2022-08-31T08:09:21.986Z,2.08
2022-08-31T08:12:22.553Z,2.08
2022-08-31T08:15:09.524Z,2.20
2022-08-31T08:17:59.522Z,2.40
2022-08-31T08:20:37.440Z,2.30
2022-08-31T08:23:14.512Z,2.08
2022-08-31T08:26:08.879Z,2.30
2022-08-31T08:29:00.893Z,2.03
2022-08-31T08:31:29.093Z,2.40
2022-08-31T08:33:56.429Z,3.20
2022-08-31T08:36:24.022Z,2.38
2022-08-31T08:38:53.960Z,2.20
2022-08-31T08:41:26.694Z,2.45
2022-08-31T08:43:58.706Z,2.17
2022-08-31T08:47:37.718Z,1.92
2022-08-31T08:49:28.485Z,2.25
2022-08-31T08:52:07.511Z,2.10
2022-08-31T08:54:36.330Z,2.20
2022-08-31T08:57:28.759Z,2.20
2022-08-31T09:00:01.037Z,2.00
2022-08-31T09:02:42.779Z,2.20
2022-08-31T09:05:14.173Z,2.05
2022-08-31T09:08:23.373Z,1.95
2022-08-31T09:11:19.053Z,2.55
2022-08-31T09:14:19.247Z,2.08
2022-08-31T09:17:33.130Z,2.17
2022-08-31T09:20:01.515Z,1.92
2022-08-31T09:22:32.911Z,2.00
2022-08-31T09:25:03.566Z,1.90
2022-08-31T09:27:57.888Z,2.20
2022-08-31T09:30:43.574Z,2.03
2022-08-31T09:33:21.268Z,2.03
2022-08-31T09:35:49.201Z,1.83
2022-08-31T09:38:40.302Z,2.05
2022-08-31T09:41:30.833Z,2.10
2022-08-31T09:44:21.008Z,2.03
2022-08-31T09:46:53.410Z,2.17
2022-08-31T09:49:22.674Z,2.10
2022-08-31T09:51:50.045Z,2.30
2022-08-31T09:54:36.693Z,1.90
2022-08-31T09:57:06.245Z,2.15
2022-08-31T09:59:38.836Z,2.42
2022-08-31T10:02:08.137Z,2.42
2022-08-31T10:04:46.078Z,2.30
2022-08-31T10:07:38.922Z,2.20
2022-08-31T10:10:28.435Z,2.03
2022-08-31T10:13:03.838Z,2.00
2022-08-31T10:15:31.014Z,2.13
2022-08-31T10:18:21.196Z,2.30
2022-08-31T10:20:56.936Z,2.28
2022-08-31T10:23:34.911Z,1.92
2022-08-31T10:26:10.650Z,2.22
2022-08-31T10:28:42.109Z,2.15
2022-08-31T10:31:23.697Z,2.05
2022-08-31T10:34:19.187Z,1.95
2022-08-31T10:36:47.795Z,2.10
2022-08-31T10:39:36.380Z,2.00
2022-08-31T10:42:05.529Z,2.10
2022-08-31T10:44:40.695Z,2.05
2022-08-31T10:50:03.150Z,1.90
2022-08-31T10:52:33.348Z,2.00
2022-08-31T10:55:06.794Z,2.13
2022-08-31T10:57:47.597Z,2.15
2022-08-31T11:00:41.625Z,2.00
2022-08-31T11:03:47.076Z,2.08
2022-08-31T11:06:24.724Z,1.95
2022-08-31T11:08:57.547Z,2.10
2022-08-31T11:11:51.963Z,1.65
2022-08-31T11:14:48.273Z,1.80
2022-08-31T11:17:22.643Z,2.17
2022-08-31T11:20:17.123Z,2.00
2022-08-31T11:22:52.838Z,2.00
2022-08-31T11:25:49.066Z,1.80
2022-08-31T11:28:34.963Z,1.75
2022-08-31T11:31:23.773Z,1.85
2022-08-31T11:34:15.958Z,1.80
2022-08-31T11:36:50.133Z,1.73
2022-08-31T11:39:27.335Z,1.70
2022-08-31T11:41:54.820Z,1.73
2022-08-31T11:44:44.439Z,1.77
2022-08-31T11:47:13.081Z,2.20
2022-08-31T11:49:45.573Z,1.77
2022-08-31T11:52:25.041Z,1.80
2022-08-31T11:54:52.752Z,1.80
2022-08-31T11:57:24.215Z,1.90
2022-08-31T11:59:54.528Z,2.13
2022-08-31T12:02:21.782Z,1.80
2022-08-31T12:05:03.173Z,1.50
2022-08-31T12:07:30.317Z,1.92
2022-08-31T12:10:03.558Z,1.60
2022-08-31T12:12:55.230Z,1.65
2022-08-31T12:15:47.479Z,2.03
2022-08-31T12:18:30.913Z,1.70
2022-08-31T12:21:19.320Z,1.98
2022-08-31T12:24:05.354Z,2.03
2022-08-31T12:27:02.831Z,1.80
2022-08-31T12:29:30.619Z,1.73
2022-08-31T12:32:16.626Z,1.80
2022-08-31T12:34:48.748Z,1.80
2022-08-31T12:37:27.603Z,1.70
2022-08-31T12:40:16.670Z,1.45
2022-08-31T12:42:52.084Z,1.60
2022-08-31T12:45:19.083Z,1.60
2022-08-31T12:47:52.142Z,1.70
2022-08-31T12:50:22.143Z,1.90
2022-08-31T12:53:01.054Z,2.00
2022-08-31T12:55:42.670Z,1.60
2022-08-31T12:58:31.722Z,1.50
2022-08-31T13:01:09.680Z,1.63
2022-08-31T13:03:38.325Z,1.90
2022-08-31T13:06:12.284Z,1.80
2022-08-31T13:08:47.573Z,1.40
2022-08-31T13:11:22.935Z,1.70
2022-08-31T13:13:51.219Z,1.45
2022-08-31T13:16:18.293Z,1.52
2022-08-31T13:18:46.307Z,1.60
2022-08-31T13:21:19.237Z,1.70
2022-08-31T13:23:48.582Z,1.42
2022-08-31T13:26:23.039Z,1.30
2022-08-31T13:28:51.406Z,1.48
2022-08-31T13:31:48.523Z,1.55
2022-08-31T13:34:15.446Z,1.30
2022-08-31T13:36:47.722Z,1.58
2022-08-31T13:39:26.796Z,1.30
2022-08-31T13:42:05.990Z,1.45
2022-08-31T13:44:39.210Z,1.58
2022-08-31T13:47:27.515Z,1.52
2022-08-31T13:50:18.374Z,1.30
2022-08-31T13:53:09.634Z,1.20
2022-08-31T13:55:43.648Z,1.30
2022-08-31T13:58:29.948Z,1.67
2022-08-31T14:01:25.058Z,1.30
2022-08-31T14:03:58.182Z,1.40
2022-08-31T14:06:34.853Z,1.70
2022-08-31T14:09:05.197Z,1.33
2022-08-31T14:11:33.811Z,1.50
2022-08-31T14:14:05.855Z,1.25
2022-08-31T14:19:02.198Z,1.55
2022-08-31T14:21:37.262Z,1.42
2022-08-31T14:24:05.215Z,1.45
2022-08-31T14:26:37.156Z,1.10
2022-08-31T14:31:44.538Z,1.70
2022-08-31T14:34:23.506Z,1.40
2022-08-31T14:37:16.444Z,1.38
2022-08-31T14:39:47.686Z,1.35
2022-08-31T14:42:18.881Z,1.30
2022-08-31T14:44:53.592Z,1.50
2022-08-31T14:47:21.356Z,1.55
2022-08-31T14:49:49.134Z,1.55
2022-08-31T14:52:17.220Z,1.40
2022-08-31T14:54:44.493Z,1.50
2022-08-31T14:57:19.408Z,1.40
2022-08-31T14:59:47.235Z,1.20
2022-08-31T15:02:21.213Z,1.23
2022-08-31T15:04:48.586Z,1.50
2022-08-31T15:07:15.862Z,1.27
2022-08-31T15:09:43.253Z,1.60
2022-08-31T15:12:14.727Z,1.20
2022-08-31T15:17:18.733Z,1.38
2022-08-31T15:19:48.210Z,1.40
2022-08-31T15:22:16.033Z,1.40
2022-08-31T15:24:44.959Z,1.20
2022-08-31T15:27:15.545Z,1.30
2022-08-31T15:29:43.016Z,1.38
2022-08-31T15:32:10.435Z,1.30
2022-08-31T15:34:38.339Z,1.40
2022-08-31T15:37:06.404Z,1.50
2022-08-31T15:39:40.379Z,1.55
2022-08-31T15:42:11.255Z,1.30
2022-08-31T15:44:39.229Z,1.50
2022-08-31T15:47:25.623Z,1.55
2022-08-31T15:49:52.665Z,1.30
2022-08-31T15:52:19.909Z,1.30
2022-08-31T15:54:47.157Z,1.48
2022-08-31T15:57:16.015Z,1.33
2022-08-31T15:59:43.689Z,1.40
2022-08-31T16:02:13.899Z,1.60
2022-08-31T16:04:43.406Z,1.20
2022-08-31T16:07:11.172Z,1.27
2022-08-31T16:09:44.680Z,1.55
2022-08-31T16:12:13.802Z,1.40
2022-08-31T16:14:41.919Z,1.27
2022-08-31T16:17:09.507Z,1.48
2022-08-31T16:19:37.140Z,1.38
2022-08-31T16:22:06.021Z,1.30
2022-08-31T16:24:36.006Z,1.80
2022-08-31T16:27:08.098Z,1.45
2022-08-31T16:32:02.566Z,1.42
2022-08-31T16:34:31.441Z,1.40
2022-08-31T16:36:59.822Z,1.20
2022-08-31T16:39:28.319Z,1.30
2022-08-31T16:41:55.423Z,1.30
2022-08-31T16:44:22.291Z,1.73
2022-08-31T16:46:49.278Z,1.50
2022-08-31T16:49:34.199Z,1.65
2022-08-31T16:52:12.187Z,1.73
2022-08-31T16:54:44.366Z,1.30
2022-08-31T16:57:12.951Z,1.45
2022-08-31T16:59:42.991Z,1.40
2022-08-31T17:02:14.101Z,1.60
2022-08-31T17:04:52.179Z,1.30
2022-08-31T17:07:20.600Z,1.67
2022-08-31T17:09:47.847Z,1.33
2022-08-31T17:12:17.071Z,1.30
2022-08-31T17:14:51.333Z,1.45
2022-08-31T17:17:21.039Z,1.45
2022-08-31T17:19:47.990Z,1.30
2022-08-31T17:22:23.485Z,1.20
2022-08-31T17:24:52.158Z,1.40
2022-08-31T17:27:20.011Z,1.15
2022-08-31T17:29:49.818Z,1.35
2022-08-31T17:32:21.491Z,1.77
2022-08-31T17:34:51.965Z,1.42
2022-08-31T17:37:32.470Z,1.55
2022-08-31T17:39:59.871Z,1.30
2022-08-31T17:42:27.021Z,1.40
2022-08-31T17:44:55.182Z,1.50
2022-08-31T17:47:22.866Z,1.40
2022-08-31T17:49:50.956Z,1.58
2022-08-31T17:52:20.438Z,1.40
2022-08-31T17:54:47.667Z,1.55
2022-08-31T17:57:15.383Z,1.45
2022-08-31T17:59:48.335Z,1.65
2022-08-31T18:02:18.169Z,1.60
2022-08-31T18:04:45.171Z,1.40
2022-08-31T18:07:12.288Z,1.60
2022-08-31T18:09:40.980Z,1.65
2022-08-31T18:12:08.275Z,1.65
2022-08-31T18:14:36.244Z,1.67
2022-08-31T18:17:04.526Z,1.50
2022-08-31T18:19:34.681Z,1.92
2022-08-31T18:22:01.772Z,1.40
2022-08-31T18:24:30.121Z,1.50
2022-08-31T18:26:58.088Z,1.55
2022-08-31T18:29:26.707Z,1.40
2022-08-31T18:31:53.985Z,1.23
2022-08-31T18:34:23.008Z,1.50
2022-08-31T18:36:51.344Z,1.50
2022-08-31T18:39:34.771Z,1.38
2022-08-31T18:42:27.603Z,1.38
2022-08-31T18:45:12.969Z,1.80
2022-08-31T18:47:39.971Z,1.30
2022-08-31T18:50:07.827Z,1.52
2022-08-31T18:52:40.239Z,1.40
2022-08-31T18:55:12.835Z,1.30
2022-08-31T18:57:49.002Z,1.50
2022-08-31T19:00:17.646Z,1.40
2022-08-31T19:02:44.957Z,1.45
2022-08-31T19:05:12.989Z,1.38
2022-08-31T19:07:41.161Z,1.40
2022-08-31T19:10:12.836Z,1.52
2022-08-31T19:12:42.624Z,1.52
2022-08-31T19:15:11.089Z,1.60
2022-08-31T19:17:40.154Z,1.65
2022-08-31T19:20:10.145Z,1.40
2022-08-31T19:22:37.959Z,1.60
2022-08-31T19:25:07.619Z,1.40
2022-08-31T19:27:35.303Z,1.65
2022-08-31T19:30:05.929Z,1.70
2022-08-31T19:32:33.634Z,1.33
2022-08-31T19:35:00.572Z,1.60
2022-08-31T19:37:27.699Z,1.60
2022-08-31T19:39:54.582Z,1.40
2022-08-31T19:42:39.793Z,1.50
2022-08-31T19:45:24.214Z,1.60
2022-08-31T19:47:51.484Z,1.55
2022-08-31T19:50:18.459Z,1.33
2022-08-31T19:52:45.601Z,1.90
2022-08-31T19:55:12.650Z,1.40
2022-08-31T19:57:43.454Z,1.70
2022-08-31T20:00:11.811Z,1.60
2022-08-31T20:02:40.355Z,1.40
2022-08-31T20:05:08.054Z,1.35
2022-08-31T20:07:35.871Z,1.80
2022-08-31T20:10:03.502Z,1.48
2022-08-31T20:12:30.478Z,1.50
2022-08-31T20:14:57.409Z,1.67
2022-08-31T20:17:24.283Z,1.40
2022-08-31T20:19:54.330Z,1.50
2022-08-31T20:22:23.510Z,1.50
2022-08-31T20:24:53.234Z,1.52
2022-08-31T20:27:20.213Z,1.40
2022-08-31T20:29:48.066Z,1.63
2022-08-31T20:32:15.044Z,1.92
2022-08-31T20:34:43.492Z,1.52
2022-08-31T20:37:10.648Z,1.55
2022-08-31T20:39:39.325Z,1.58
2022-08-31T20:42:07.046Z,1.60
2022-08-31T20:44:35.402Z,1.58
2022-08-31T20:47:26.351Z,2.00
2022-08-31T20:49:55.327Z,1.40
2022-08-31T20:52:24.955Z,1.35
2022-08-31T20:54:54.358Z,1.60
2022-08-31T20:57:29.881Z,1.60
2022-08-31T20:59:56.793Z,1.65
2022-08-31T21:02:23.961Z,1.50
2022-08-31T21:04:50.932Z,1.70
2022-08-31T21:07:19.120Z,1.45
2022-08-31T21:09:46.274Z,1.60
2022-08-31T21:12:14.259Z,1.98
2022-08-31T21:14:45.744Z,1.60
2022-08-31T21:17:14.239Z,1.50
2022-08-31T21:19:41.943Z,2.20
2022-08-31T21:22:10.889Z,1.60
2022-08-31T21:24:38.559Z,1.60
2022-08-31T21:27:08.025Z,2.03
2022-08-31T21:29:36.485Z,1.90
2022-08-31T21:32:07.671Z,1.73
2022-08-31T21:34:34.684Z,1.80
2022-08-31T21:37:01.512Z,1.75
2022-08-31T21:39:28.531Z,2.17
2022-08-31T21:41:56.118Z,1.60
2022-08-31T21:44:23.061Z,1.77
2022-08-31T21:46:51.037Z,1.58
2022-08-31T21:49:18.631Z,1.58
2022-08-31T21:51:49.705Z,2.28
2022-08-31T21:54:19.089Z,2.45
2022-08-31T21:56:48.247Z,2.05
2022-08-31T21:59:16.448Z,1.80
2022-08-31T22:01:45.084Z,1.77
2022-08-31T22:04:13.759Z,1.75
2022-08-31T22:06:43.079Z,2.70
2022-08-31T22:09:12.136Z,1.70
2022-08-31T22:11:43.964Z,1.80
2022-08-31T22:14:11.556Z,1.80
2022-08-31T22:16:39.441Z,1.70
2022-08-31T22:19:13.284Z,1.88
2022-08-31T22:21:42.885Z,2.10
2022-08-31T22:24:11.157Z,2.08
2022-08-31T22:26:48.672Z,1.75
2022-08-31T22:29:21.976Z,1.90
2022-08-31T22:31:50.114Z,1.98
2022-08-31T22:34:21.084Z,1.92
2022-08-31T22:36:52.119Z,1.70
2022-08-31T22:39:25.585Z,2.10
2022-08-31T22:41:53.071Z,1.98
2022-08-31T22:44:21.717Z,2.20
2022-08-31T22:46:48.629Z,1.90
2022-08-31T22:49:15.843Z,2.13
2022-08-31T22:51:43.168Z,1.95
2022-08-31T22:54:10.261Z,1.80
2022-08-31T22:56:38.136Z,2.38
2022-08-31T22:59:10.129Z,2.08
2022-08-31T23:01:42.016Z,1.90
2022-08-31T23:04:14.522Z,1.95
2022-08-31T23:06:41.526Z,1.95
2022-08-31T23:09:09.952Z,1.75
2022-08-31T23:11:37.720Z,1.90
2022-08-31T23:14:07.560Z,1.90
2022-08-31T23:16:36.791Z,2.20
2022-08-31T23:19:12.282Z,2.30
2022-08-31T23:21:47.663Z,1.95
2022-08-31T23:24:28.702Z,2.10
2022-08-31T23:27:01.590Z,2.10
2022-08-31T23:29:41.485Z,1.75
2022-08-31T23:32:12.088Z,2.00
2022-08-31T23:34:40.034Z,2.10
2022-08-31T23:37:10.514Z,2.47
2022-08-31T23:39:43.547Z,2.17
2022-08-31T23:42:12.103Z,2.22
2022-08-31T23:44:43.643Z,2.50
2022-08-31T23:47:13.627Z,2.40
2022-08-31T23:49:41.152Z,2.25
2022-08-31T23:52:08.376Z,2.25
2022-08-31T23:54:36.389Z,2.20
2022-08-31T23:57:03.444Z,1.90
2022-08-31T23:59:31.622Z,2.08
